Apple Valley, Minnesota
Current Conditions -  °F | °C
As of 10:06 PM on Saturday 22 Nov 2014 (Local Time) from KLVN Reporting Station
Haze Haze  
Wind Chill: 33°   Ceiling: 1100
Heat Index: 37°   Visibility: 2mi
Dew Point: 37°   Wind: 6mph
Humidity: 100%   Direction: 100°E
Pressure: 29.52"   Gusts: NA
Location:  44.74°N, 93.22°W
Report Text: KLVN 230406Z AUTO 10005KT 2SM BR OVC011 03/03 A2952 RMK AO2
Loading
Personal Weather Stations






























Interactive Weather Map New forecast layout! Learn more

10-Day Weather Forecast

Advertisements
Track Severe Weather on mobile